createdAt,value
2022-10-11T00:01:44.243Z,99.90
2022-10-11T00:04:13.892Z,99.90
2022-10-11T00:06:44.916Z,99.90
2022-10-11T00:09:13.639Z,99.90
2022-10-11T00:11:42.080Z,99.90
2022-10-11T00:14:09.985Z,99.90
2022-10-11T00:16:41.248Z,99.90
2022-10-11T00:19:10.456Z,99.90
2022-10-11T00:21:38.434Z,99.90
2022-10-11T00:24:11.667Z,99.90
2022-10-11T00:26:44.391Z,99.90
2022-10-11T00:29:16.040Z,99.90
2022-10-11T00:31:44.813Z,99.90
2022-10-11T00:34:14.161Z,99.90
2022-10-11T00:36:42.989Z,99.90
2022-10-11T00:39:12.295Z,99.90
2022-10-11T00:41:41.857Z,99.90
2022-10-11T00:44:24.782Z,99.90
2022-10-11T00:46:58.540Z,99.90
2022-10-11T00:49:43.597Z,99.90
2022-10-11T00:52:38.077Z,99.90
2022-10-11T00:55:14.931Z,99.90
2022-10-11T00:57:46.989Z,99.90
2022-10-11T01:00:16.333Z,99.90
2022-10-11T01:02:45.625Z,99.90
2022-10-11T01:05:29.260Z,99.90
2022-10-11T01:08:02.894Z,99.90
2022-10-11T01:10:30.884Z,99.90
2022-10-11T01:13:38.495Z,99.90
2022-10-11T01:16:36.355Z,99.90
2022-10-11T01:19:29.867Z,99.90
2022-10-11T01:22:11.293Z,99.90
2022-10-11T01:24:53.776Z,99.90
2022-10-11T01:27:47.317Z,99.90
2022-10-11T01:30:22.413Z,99.90
2022-10-11T01:33:14.039Z,99.90
2022-10-11T01:35:45.949Z,99.90
2022-10-11T01:38:47.370Z,99.90
2022-10-11T01:41:46.500Z,99.90
2022-10-11T01:44:15.192Z,99.90
2022-10-11T01:46:43.674Z,99.90
2022-10-11T01:49:11.636Z,99.90
2022-10-11T01:51:53.579Z,99.90
2022-10-11T01:54:56.671Z,99.90
2022-10-11T01:57:47.109Z,99.90
2022-10-11T02:00:23.823Z,99.90
2022-10-11T02:03:52.936Z,99.90
2022-10-11T02:06:46.908Z,99.90
2022-10-11T02:09:38.025Z,99.90
2022-10-11T02:12:13.196Z,99.90
2022-10-11T02:14:46.992Z,99.90
2022-10-11T02:17:22.185Z,99.90
2022-10-11T02:19:53.881Z,99.90
2022-10-11T02:22:45.517Z,99.90
2022-10-11T02:25:40.334Z,99.90
2022-10-11T02:28:24.797Z,99.90
2022-10-11T02:30:59.452Z,99.90
2022-10-11T02:34:02.448Z,99.90
2022-10-11T02:37:10.737Z,99.90
2022-10-11T02:40:36.605Z,99.90
2022-10-11T02:43:42.862Z,99.90
2022-10-11T02:46:12.080Z,99.90
2022-10-11T02:48:40.164Z,99.90
2022-10-11T02:51:13.844Z,99.90
2022-10-11T02:53:41.802Z,99.90
2022-10-11T02:56:09.461Z,99.90
2022-10-11T02:58:37.654Z,99.90
2022-10-11T03:01:06.831Z,99.90
2022-10-11T03:03:34.870Z,99.90
2022-10-11T03:06:04.856Z,99.90
2022-10-11T03:08:33.472Z,99.90
2022-10-11T03:11:01.186Z,99.90
2022-10-11T03:13:29.228Z,99.90
2022-10-11T03:16:03.389Z,99.90
2022-10-11T03:18:36.476Z,99.90
2022-10-11T03:21:04.648Z,99.90
2022-10-11T03:23:32.766Z,99.90
2022-10-11T03:26:00.647Z,99.90
2022-10-11T03:28:28.861Z,99.90
2022-10-11T03:30:56.749Z,99.90
2022-10-11T03:33:25.035Z,99.90
2022-10-11T03:35:54.042Z,99.90
2022-10-11T03:38:23.372Z,99.90
2022-10-11T03:40:51.580Z,99.90
2022-10-11T03:43:19.489Z,99.90
2022-10-11T03:45:47.459Z,99.90
2022-10-11T03:48:15.691Z,99.90
2022-10-11T03:50:44.424Z,99.90
2022-10-11T03:53:12.277Z,99.90
2022-10-11T03:55:41.356Z,99.90
2022-10-11T03:58:09.982Z,99.90
2022-10-11T04:00:38.225Z,99.90
2022-10-11T04:03:06.150Z,99.90
2022-10-11T04:05:34.507Z,99.90
2022-10-11T04:08:02.503Z,99.90
2022-10-11T04:10:32.456Z,99.90
2022-10-11T04:13:00.213Z,99.90
2022-10-11T04:15:28.337Z,99.90
2022-10-11T04:17:56.796Z,99.90
2022-10-11T04:20:25.175Z,99.90
2022-10-11T04:22:53.208Z,99.90
2022-10-11T04:25:21.299Z,99.90
2022-10-11T04:27:49.397Z,99.90
2022-10-11T04:30:18.513Z,99.90
2022-10-11T04:32:46.651Z,99.90
2022-10-11T04:35:15.234Z,99.90
2022-10-11T04:37:43.075Z,99.90
2022-10-11T04:40:11.765Z,99.90
2022-10-11T04:42:39.611Z,99.90
2022-10-11T04:45:08.215Z,99.90
2022-10-11T04:47:36.172Z,99.90
2022-10-11T04:50:05.104Z,99.90
2022-10-11T04:52:32.898Z,99.90
2022-10-11T04:55:00.696Z,99.90
2022-10-11T04:57:28.593Z,99.90
2022-10-11T04:59:57.471Z,99.90
2022-10-11T05:02:25.475Z,99.90
2022-10-11T05:04:53.315Z,99.90
2022-10-11T05:07:21.227Z,99.90
2022-10-11T05:09:56.001Z,99.90
2022-10-11T05:12:23.742Z,99.90
2022-10-11T05:14:51.704Z,99.90
2022-10-11T05:17:19.657Z,99.90
2022-10-11T05:19:47.445Z,99.90
2022-10-11T05:22:15.526Z,99.90
2022-10-11T05:24:43.295Z,99.90
2022-10-11T05:27:11.298Z,99.90
2022-10-11T05:29:39.197Z,99.90
2022-10-11T05:32:07.143Z,99.90
2022-10-11T05:34:35.130Z,99.90
2022-10-11T05:37:03.182Z,99.90
2022-10-11T05:39:31.151Z,99.90
2022-10-11T05:41:59.432Z,99.90
2022-10-11T05:44:27.322Z,99.90
2022-10-11T05:46:55.333Z,99.90
2022-10-11T05:49:23.099Z,99.90
2022-10-11T05:51:50.892Z,99.90
2022-10-11T05:54:18.747Z,99.90
2022-10-11T05:56:46.715Z,99.90
2022-10-11T05:59:14.963Z,99.90
2022-10-11T06:01:43.235Z,99.90
2022-10-11T06:04:12.085Z,99.90
2022-10-11T06:06:39.857Z,99.90
2022-10-11T06:09:07.655Z,99.90
2022-10-11T06:11:35.554Z,99.90
2022-10-11T06:14:03.279Z,99.90
2022-10-11T06:16:31.586Z,99.90
2022-10-11T06:18:59.417Z,99.90
2022-10-11T06:21:27.498Z,99.90
2022-10-11T06:24:01.527Z,99.90
2022-10-11T06:26:30.063Z,99.90
2022-10-11T06:28:59.070Z,99.90
2022-10-11T06:31:27.522Z,99.90
2022-10-11T06:33:55.382Z,99.90
2022-10-11T06:36:23.420Z,99.90
2022-10-11T06:38:55.351Z,99.90
2022-10-11T06:41:26.623Z,99.90
2022-10-11T06:43:54.643Z,99.80
2022-10-11T06:46:24.587Z,99.50
2022-10-11T06:48:52.945Z,99.30
2022-10-11T06:51:22.311Z,99.00
2022-10-11T06:53:57.062Z,98.80
2022-10-11T06:56:27.026Z,98.20
2022-10-11T06:58:57.860Z,98.20
2022-10-11T07:01:27.245Z,98.10
2022-10-11T07:03:56.857Z,97.80
2022-10-11T07:06:27.561Z,97.70
2022-10-11T07:08:56.116Z,97.40
2022-10-11T07:11:28.590Z,97.30
2022-10-11T07:13:59.494Z,97.10
2022-10-11T07:16:28.612Z,97.00
2022-10-11T07:19:00.752Z,96.40
2022-10-11T07:21:30.605Z,96.90
2022-10-11T07:23:58.532Z,96.70
2022-10-11T07:26:26.863Z,96.40
2022-10-11T07:28:54.921Z,97.00
2022-10-11T07:31:25.000Z,96.40
2022-10-11T07:33:53.129Z,96.50
2022-10-11T07:36:21.196Z,96.10
2022-10-11T07:38:50.919Z,96.40
2022-10-11T07:41:19.558Z,96.00
2022-10-11T07:43:49.915Z,96.00
2022-10-11T07:46:20.844Z,95.40
2022-10-11T07:48:50.533Z,95.40
2022-10-11T07:51:20.705Z,95.40
2022-10-11T07:53:50.575Z,95.20
2022-10-11T07:56:21.029Z,94.70
2022-10-11T07:58:53.903Z,94.00
2022-10-11T08:01:22.550Z,94.10
2022-10-11T08:03:51.142Z,94.50
2022-10-11T08:06:23.486Z,94.50
2022-10-11T08:08:51.288Z,94.10
2022-10-11T08:11:27.558Z,93.60
2022-10-11T08:13:56.323Z,93.90
2022-10-11T08:16:24.228Z,92.80
2022-10-11T08:18:52.202Z,93.10
2022-10-11T08:21:19.893Z,92.80
2022-10-11T08:23:47.679Z,92.60
2022-10-11T08:26:16.003Z,92.20
2022-10-11T08:28:44.030Z,92.10
2022-10-11T08:31:16.577Z,92.50
2022-10-11T08:33:44.479Z,92.50
2022-10-11T08:36:13.182Z,91.70
2022-10-11T08:38:41.819Z,91.50
2022-10-11T08:41:39.637Z,92.30
2022-10-11T08:45:10.637Z,91.70
2022-10-11T08:47:34.561Z,91.70
2022-10-11T08:50:04.603Z,91.40
2022-10-11T08:52:49.398Z,90.30
2022-10-11T08:55:25.276Z,89.50
2022-10-11T08:57:56.421Z,88.20
2022-10-11T09:00:27.252Z,86.90
2022-10-11T09:03:11.498Z,86.30
2022-10-11T09:05:57.697Z,85.40
2022-10-11T09:09:08.370Z,84.10
2022-10-11T09:11:57.737Z,83.10
2022-10-11T09:14:54.250Z,84.20
2022-10-11T09:17:25.482Z,84.50
2022-10-11T09:20:19.777Z,84.00
2022-10-11T09:23:09.195Z,83.90
2022-10-11T09:25:58.962Z,83.40
2022-10-11T09:29:17.003Z,82.10
2022-10-11T09:31:53.995Z,82.20
2022-10-11T09:34:32.602Z,81.60
2022-10-11T09:37:24.990Z,81.80
2022-10-11T09:40:03.672Z,81.20
2022-10-11T09:42:31.505Z,79.30
2022-10-11T09:45:02.299Z,78.60
2022-10-11T09:47:33.568Z,76.60
2022-10-11T09:50:30.906Z,75.80
2022-10-11T09:53:02.362Z,75.20
2022-10-11T09:55:53.225Z,73.70
2022-10-11T09:58:27.391Z,71.50
2022-10-11T10:01:08.269Z,69.90
2022-10-11T10:03:42.053Z,69.60
2022-10-11T10:06:24.484Z,69.10
2022-10-11T10:08:52.810Z,67.10
2022-10-11T10:11:21.197Z,64.40
2022-10-11T10:13:57.132Z,65.20
2022-10-11T10:16:33.981Z,65.60
2022-10-11T10:19:25.532Z,65.60
2022-10-11T10:21:56.184Z,64.00
2022-10-11T10:24:33.355Z,62.40
2022-10-11T10:27:30.746Z,61.60
2022-10-11T10:30:17.055Z,62.00
2022-10-11T10:33:04.191Z,61.90
2022-10-11T10:35:39.886Z,60.70
2022-10-11T10:38:27.921Z,60.20
2022-10-11T10:41:04.277Z,60.60
2022-10-11T10:43:38.771Z,59.20
2022-10-11T10:46:36.364Z,58.90
2022-10-11T10:52:37.521Z,59.80
2022-10-11T10:55:28.588Z,58.50
2022-10-11T10:58:24.369Z,57.90
2022-10-11T11:01:13.950Z,56.60
2022-10-11T11:03:56.957Z,56.70
2022-10-11T11:06:36.498Z,56.30
2022-10-11T11:09:10.785Z,55.10
2022-10-11T11:12:17.343Z,54.20
2022-10-11T11:14:58.820Z,53.90
2022-10-11T11:17:30.204Z,53.40
2022-10-11T11:20:30.160Z,53.50
2022-10-11T11:23:12.946Z,52.50
2022-10-11T11:26:04.610Z,51.50
2022-10-11T11:29:03.902Z,51.40
2022-10-11T11:31:55.306Z,51.20
2022-10-11T11:34:32.030Z,51.90
2022-10-11T11:37:11.582Z,51.30
2022-10-11T11:39:55.883Z,51.30
2022-10-11T11:42:45.442Z,52.10
2022-10-11T11:45:21.603Z,51.70
2022-10-11T11:48:20.274Z,52.30
2022-10-11T11:51:30.516Z,52.10
2022-10-11T11:54:20.845Z,52.50
2022-10-11T11:57:14.728Z,52.70
2022-10-11T11:59:58.012Z,52.20
2022-10-11T12:03:00.638Z,51.30
2022-10-11T12:05:34.019Z,51.00
2022-10-11T12:08:08.623Z,50.70
2022-10-11T12:11:00.347Z,49.70
2022-10-11T12:13:35.099Z,50.70
2022-10-11T12:16:14.331Z,51.00
2022-10-11T12:18:56.380Z,50.00
2022-10-11T12:21:38.959Z,49.50
2022-10-11T12:24:22.909Z,48.90
2022-10-11T12:26:55.906Z,49.40
2022-10-11T12:29:43.023Z,49.10
2022-10-11T12:32:12.212Z,48.60
2022-10-11T12:34:43.133Z,48.50
2022-10-11T12:37:19.958Z,47.90
2022-10-11T12:39:56.399Z,47.60
2022-10-11T12:42:29.639Z,47.10
2022-10-11T12:45:14.908Z,47.10
2022-10-11T12:48:01.488Z,47.50
2022-10-11T12:51:02.909Z,46.60
2022-10-11T12:54:28.988Z,45.70
2022-10-11T12:57:12.140Z,45.30
2022-10-11T12:59:45.784Z,45.60
2022-10-11T13:02:44.699Z,45.70
2022-10-11T13:05:26.696Z,45.60
2022-10-11T13:07:57.727Z,45.00
2022-10-11T13:10:36.540Z,44.10
2022-10-11T13:13:10.496Z,44.50
2022-10-11T13:15:39.072Z,43.50
2022-10-11T13:18:06.768Z,42.40
2022-10-11T13:20:38.770Z,43.20
2022-10-11T13:23:30.556Z,42.70
2022-10-11T13:26:01.515Z,43.30
2022-10-11T13:28:34.161Z,44.10
2022-10-11T13:31:07.354Z,43.90
2022-10-11T13:33:42.688Z,45.60
2022-10-11T13:36:17.932Z,46.30
2022-10-11T13:39:05.990Z,48.20
2022-10-11T13:41:35.472Z,51.00
2022-10-11T13:44:04.575Z,52.70
2022-10-11T13:46:33.857Z,54.10
2022-10-11T13:49:24.288Z,55.30
2022-10-11T13:52:01.945Z,56.40
2022-10-11T13:54:59.228Z,58.00
2022-10-11T13:57:46.520Z,58.60
2022-10-11T14:00:20.277Z,57.80
2022-10-11T14:03:13.797Z,58.80
2022-10-11T14:05:54.342Z,59.40
2022-10-11T14:08:33.668Z,59.30
2022-10-11T14:11:06.286Z,59.90
2022-10-11T14:13:42.749Z,59.10
2022-10-11T14:16:21.168Z,59.00
2022-10-11T14:18:52.461Z,59.30
2022-10-11T14:21:20.471Z,60.80
2022-10-11T14:23:55.572Z,61.30
2022-10-11T14:26:24.996Z,62.70
2022-10-11T14:28:58.968Z,63.80
2022-10-11T14:31:30.751Z,65.30
2022-10-11T14:33:59.169Z,66.10
2022-10-11T14:36:26.966Z,67.20
2022-10-11T14:38:55.029Z,67.60
2022-10-11T14:41:22.864Z,68.30
2022-10-11T14:43:50.749Z,69.20
2022-10-11T14:46:28.012Z,69.90
2022-10-11T14:48:56.732Z,70.90
2022-10-11T14:51:32.654Z,72.40
2022-10-11T14:54:00.511Z,74.10
2022-10-11T14:56:32.507Z,76.10
2022-10-11T14:59:00.752Z,79.00
2022-10-11T15:02:02.069Z,79.60
2022-10-11T15:04:30.810Z,82.10
2022-10-11T15:06:59.229Z,82.30
2022-10-11T15:09:31.013Z,83.60
2022-10-11T15:12:00.515Z,78.40
2022-10-11T15:14:28.840Z,74.10
2022-10-11T15:16:59.015Z,73.70
2022-10-11T15:19:29.624Z,74.60
2022-10-11T15:21:59.235Z,75.10
2022-10-11T15:24:28.660Z,74.90
2022-10-11T15:27:13.010Z,73.40
2022-10-11T15:29:41.726Z,73.60
2022-10-11T15:32:09.739Z,75.90
2022-10-11T15:34:39.921Z,78.20
2022-10-11T15:37:10.326Z,80.80
2022-10-11T15:39:38.408Z,82.30
2022-10-11T15:42:07.920Z,83.20
2022-10-11T15:44:37.614Z,83.70
2022-10-11T15:47:07.013Z,84.10
2022-10-11T15:49:37.095Z,85.10
2022-10-11T15:52:08.017Z,85.30
2022-10-11T15:54:36.769Z,85.60
2022-10-11T15:57:04.650Z,84.80
2022-10-11T15:59:32.521Z,85.90
2022-10-11T16:02:00.648Z,85.40
2022-10-11T16:04:29.181Z,85.70
2022-10-11T16:06:58.056Z,86.00
2022-10-11T16:09:28.028Z,86.60
2022-10-11T16:11:57.581Z,87.00
2022-10-11T16:14:26.742Z,88.20
2022-10-11T16:16:55.323Z,88.80
2022-10-11T16:19:23.451Z,89.30
2022-10-11T16:21:54.721Z,89.80
2022-10-11T16:24:23.607Z,90.30
2022-10-11T16:26:52.321Z,91.10
2022-10-11T16:29:24.881Z,91.60
2022-10-11T16:31:54.797Z,91.90
2022-10-11T16:34:24.186Z,92.60
2022-10-11T16:36:52.341Z,93.10
2022-10-11T16:39:21.715Z,93.60
2022-10-11T16:41:51.275Z,94.00
2022-10-11T16:47:14.077Z,95.10
2022-10-11T16:49:43.553Z,95.40
2022-10-11T16:52:14.645Z,95.70
2022-10-11T16:54:48.884Z,96.10
2022-10-11T16:57:25.274Z,96.50
2022-10-11T16:59:54.221Z,97.00
2022-10-11T17:02:32.364Z,97.10
2022-10-11T17:05:03.850Z,97.20
2022-10-11T17:07:32.752Z,97.40
2022-10-11T17:10:04.817Z,97.40
2022-10-11T17:12:36.235Z,97.60
2022-10-11T17:15:06.328Z,97.60
2022-10-11T17:17:35.355Z,97.60
2022-10-11T17:20:05.297Z,97.60
2022-10-11T17:22:34.128Z,97.60
2022-10-11T17:25:06.201Z,97.60
2022-10-11T17:27:34.108Z,97.80
2022-10-11T17:30:01.765Z,97.70
2022-10-11T17:32:29.797Z,97.90
2022-10-11T17:34:59.535Z,98.10
2022-10-11T17:37:28.833Z,98.20
2022-10-11T17:40:03.751Z,98.20
2022-10-11T17:42:44.773Z,98.30
2022-10-11T17:45:17.337Z,98.30
2022-10-11T17:47:50.121Z,98.40
2022-10-11T17:50:22.278Z,98.50
2022-10-11T17:52:54.624Z,98.50
2022-10-11T17:55:23.629Z,98.50
2022-10-11T17:57:53.071Z,98.50
2022-10-11T18:00:21.620Z,98.40
2022-10-11T18:02:50.426Z,98.50
2022-10-11T18:05:18.401Z,98.30
2022-10-11T18:07:46.243Z,98.30
2022-10-11T18:10:14.328Z,98.20
2022-10-11T18:12:42.047Z,98.20
2022-10-11T18:15:10.303Z,98.10
2022-10-11T18:17:38.003Z,98.00
2022-10-11T18:20:06.448Z,98.00
2022-10-11T18:22:34.986Z,98.20
2022-10-11T18:25:03.613Z,98.10
2022-10-11T18:27:31.464Z,98.20
2022-10-11T18:29:59.655Z,98.10
2022-10-11T18:32:43.501Z,98.40
2022-10-11T18:35:12.370Z,98.30
2022-10-11T18:37:43.442Z,98.40
2022-10-11T18:40:14.587Z,98.30
2022-10-11T18:42:46.246Z,98.50
2022-10-11T18:45:14.188Z,98.40
2022-10-11T18:47:41.904Z,98.40
2022-10-11T18:50:10.262Z,98.60
2022-10-11T18:52:42.454Z,98.60
2022-10-11T18:55:13.116Z,98.50
2022-10-11T18:57:42.485Z,98.60
2022-10-11T19:00:38.950Z,98.60
2022-10-11T19:03:02.653Z,98.50
2022-10-11T19:05:31.079Z,98.70
2022-10-11T19:07:59.168Z,98.60
2022-10-11T19:10:26.913Z,98.70
2022-10-11T19:12:54.848Z,98.50
2022-10-11T19:15:27.864Z,98.70
2022-10-11T19:17:56.821Z,98.80
2022-10-11T19:20:24.623Z,98.70
2022-10-11T19:22:55.182Z,98.80
2022-10-11T19:25:23.269Z,98.90
2022-10-11T19:30:49.844Z,99.10
2022-10-11T19:33:18.067Z,99.20
2022-10-11T19:35:58.555Z,99.40
2022-10-11T19:38:27.016Z,99.60
2022-10-11T19:40:58.248Z,99.40
2022-10-11T19:43:26.429Z,99.40
2022-10-11T19:46:02.632Z,99.50
2022-10-11T19:48:31.241Z,99.50
2022-10-11T19:51:12.576Z,99.40
2022-10-11T19:53:41.170Z,99.40
2022-10-11T19:56:13.064Z,99.50
2022-10-11T19:58:44.676Z,99.50
2022-10-11T20:01:19.326Z,99.60
2022-10-11T20:03:53.412Z,99.70
2022-10-11T20:06:25.325Z,99.70
2022-10-11T20:09:16.579Z,99.70
2022-10-11T20:11:42.417Z,99.80
2022-10-11T20:14:10.508Z,99.90
2022-10-11T20:16:38.724Z,99.90
2022-10-11T20:19:06.936Z,99.90
2022-10-11T20:21:35.500Z,99.90
2022-10-11T20:24:04.586Z,99.90
2022-10-11T20:26:33.937Z,99.90
2022-10-11T20:29:02.036Z,99.90
2022-10-11T20:31:39.292Z,99.90
2022-10-11T20:34:07.751Z,99.90
2022-10-11T20:36:36.524Z,99.90
2022-10-11T20:39:06.338Z,99.90
2022-10-11T20:41:40.281Z,99.90
2022-10-11T20:44:10.212Z,99.90
2022-10-11T20:46:39.734Z,99.90
2022-10-11T20:49:11.910Z,99.90
2022-10-11T20:51:42.022Z,99.90
2022-10-11T20:54:11.090Z,99.90
2022-10-11T20:56:40.271Z,99.90
2022-10-11T20:59:08.728Z,99.90
2022-10-11T21:01:39.993Z,99.90
2022-10-11T21:04:11.325Z,99.90
2022-10-11T21:06:39.372Z,99.90
2022-10-11T21:09:08.529Z,99.90
2022-10-11T21:11:39.795Z,99.90
2022-10-11T21:14:07.992Z,99.90
2022-10-11T21:16:36.208Z,99.90
2022-10-11T21:19:04.670Z,99.90
2022-10-11T21:21:33.140Z,99.90
2022-10-11T21:24:03.067Z,99.90
2022-10-11T21:26:31.883Z,99.90
2022-10-11T21:29:00.133Z,99.90
2022-10-11T21:31:34.035Z,99.90
2022-10-11T21:34:05.709Z,99.90
2022-10-11T21:36:34.275Z,99.90
2022-10-11T21:39:02.148Z,99.90
2022-10-11T21:41:34.565Z,99.90
2022-10-11T21:44:02.785Z,99.90
2022-10-11T21:46:54.467Z,99.90
2022-10-11T21:49:21.339Z,99.90
2022-10-11T21:51:49.600Z,99.90
2022-10-11T21:54:18.415Z,99.90
2022-10-11T21:56:46.662Z,99.90
2022-10-11T21:59:14.731Z,99.90
2022-10-11T22:01:44.142Z,99.90
2022-10-11T22:04:13.086Z,99.90
2022-10-11T22:06:41.273Z,99.90
2022-10-11T22:09:10.007Z,99.90
2022-10-11T22:11:38.490Z,99.90
2022-10-11T22:14:07.738Z,99.90
2022-10-11T22:16:36.071Z,99.90
2022-10-11T22:19:04.927Z,99.90
2022-10-11T22:21:33.016Z,99.90
2022-10-11T22:24:01.534Z,99.90
2022-10-11T22:26:31.586Z,99.90
2022-10-11T22:29:00.827Z,99.90
2022-10-11T22:31:29.749Z,99.90
2022-10-11T22:34:00.051Z,99.90
2022-10-11T22:36:30.788Z,99.90
2022-10-11T22:38:59.459Z,99.90
2022-10-11T22:41:27.579Z,99.90
2022-10-11T22:43:55.629Z,99.90
2022-10-11T22:46:23.676Z,99.90
2022-10-11T22:48:51.793Z,99.90
2022-10-11T22:51:19.876Z,99.90
2022-10-11T22:53:48.307Z,99.90
2022-10-11T22:56:16.492Z,99.90
2022-10-11T22:58:44.586Z,99.90
2022-10-11T23:01:14.687Z,99.90
2022-10-11T23:03:43.178Z,99.90
2022-10-11T23:06:11.507Z,99.90
2022-10-11T23:08:39.625Z,99.90
2022-10-11T23:11:08.320Z,99.90
2022-10-11T23:13:36.638Z,99.90
2022-10-11T23:16:09.666Z,99.90
2022-10-11T23:18:38.918Z,99.90
2022-10-11T23:21:07.986Z,99.90
2022-10-11T23:23:36.462Z,99.90
2022-10-11T23:26:11.372Z,99.90
2022-10-11T23:28:40.415Z,99.90
2022-10-11T23:31:26.586Z,99.90
2022-10-11T23:33:55.566Z,99.90
2022-10-11T23:36:26.155Z,99.90
2022-10-11T23:38:59.413Z,99.90
2022-10-11T23:41:29.764Z,99.90
2022-10-11T23:43:59.458Z,99.90
2022-10-11T23:46:27.356Z,99.90
2022-10-11T23:48:55.746Z,99.90
2022-10-11T23:51:23.710Z,99.90
2022-10-11T23:53:51.935Z,99.90
2022-10-11T23:56:19.894Z,99.90
2022-10-11T23:58:48.209Z,99.90
